Grenoble-Isere Airport


Codes: LFLS/GNB
Name: Grenoble-Isere Airport
City: Grenoble/Saint-Geoirs
Country: France
Elevation: 1302 ft.
Wikipedia:

Photos at Grenoble-Isere Airport


   Photos courtesy of SpottingLog. You can add your own sightings and photos by signing up for a free trial today.



F-GJSR, 11-Jan-2020
© South.jets

OY-RUE, 11-Jan-2020
© South.jets

G-DBCA, 11-Jan-2020
© South.jets

G-LSAD, 11-Jan-2020
© South.jets

G-POWK, 11-Jan-2020
© South.jets

9H-JAD, 11-Jan-2020
© South.jets

EI-DPT, 11-Jan-2020
© South.jets

EI-FHW, 11-Jan-2020
© South.jets


Weather at Grenoble-Isere Airport


Time (UTC)DescriptionTempratureWindCloud coverageVisibilityPressureHumidity
13-Jun-2024 03:00Broken Clouds10°C2 mph, N74%10000m1019hPa76%
13-Jun-2024 06:00Scattered Clouds10°C4 mph, N47%10000m1019hPa81%
13-Jun-2024 09:00Clear Sky14°C9 mph, N3%10000m1019hPa67%
13-Jun-2024 12:00Clear Sky17°C7 mph, N3%10000m1018hPa56%
13-Jun-2024 15:00Few Clouds19°C2 mph, NW19%10000m1017hPa51%
13-Jun-2024 18:00Scattered Clouds17°C2 mph, SE36%10000m1016hPa69%
13-Jun-2024 21:00Overcast Clouds13°C4 mph, SE99%10000m1017hPa73%
14-Jun-2024 00:00Overcast Clouds13°C7 mph, S99%10000m1017hPa65%
14-Jun-2024 03:00Overcast Clouds13°C4 mph, S100%10000m1015hPa59%
14-Jun-2024 06:00Light Rain12°C2 mph, S100%10000m1016hPa68%
14-Jun-2024 09:00Light Rain14°C2 mph, SE100%10000m1017hPa78%
14-Jun-2024 12:00Overcast Clouds14°C2 mph, S100%10000m1016hPa75%
14-Jun-2024 15:00Overcast Clouds18°C4 mph, SW99%10000m1014hPa65%
14-Jun-2024 18:00Light Rain19°C4 mph, SW89%10000m1013hPa87%
14-Jun-2024 21:00Broken Clouds16°C9 mph, SW61%10000m1012hPa95%
15-Jun-2024 00:00Light Rain15°C9 mph, S78%10000m1011hPa98%
15-Jun-2024 03:00Light Rain14°C9 mph, SW98%10000m1011hPa96%
15-Jun-2024 06:00Moderate Rain14°C7 mph, SW99%10000m1013hPa98%
15-Jun-2024 09:00Moderate Rain14°C4 mph, S100%10000m1014hPa97%
15-Jun-2024 12:00Moderate Rain14°C4 mph, SW100%10000m1014hPa97%
15-Jun-2024 15:00Light Rain16°C4 mph, S100%10000m1013hPa91%
15-Jun-2024 18:00Light Rain16°C4 mph, SE100%10000m1012hPa94%
15-Jun-2024 21:00Light Rain14°C2 mph, SE100%10000m1015hPa95%
16-Jun-2024 00:00Broken Clouds13°C2 mph, NW77%10000m1015hPa92%
16-Jun-2024 03:00Scattered Clouds11°C0 mph, N41%10000m1014hPa93%
16-Jun-2024 06:00Scattered Clouds13°C2 mph, NE43%10000m1015hPa91%
16-Jun-2024 09:00Broken Clouds18°C4 mph, NW55%10000m1015hPa67%
16-Jun-2024 12:00Broken Clouds21°C4 mph, NW57%10000m1014hPa56%
16-Jun-2024 15:00Overcast Clouds22°C2 mph, NW88%10000m1013hPa53%
16-Jun-2024 18:00Broken Clouds20°C2 mph, NE55%10000m1013hPa74%
16-Jun-2024 21:00Clear Sky15°C4 mph, SE5%10000m1014hPa87%
17-Jun-2024 00:00Few Clouds13°C2 mph, SE11%10000m1015hPa85%
17-Jun-2024 03:00Broken Clouds13°C2 mph, SE71%10000m1015hPa79%
17-Jun-2024 06:00Scattered Clouds16°C2 mph, SE43%10000m1015hPa71%
17-Jun-2024 09:00Clear Sky21°C4 mph, SW7%10000m1015hPa58%
17-Jun-2024 12:00Few Clouds23°C7 mph, SW13%10000m1015hPa61%
17-Jun-2024 15:00Few Clouds24°C9 mph, SW12%10000m1013hPa63%
17-Jun-2024 18:00Few Clouds22°C7 mph, SW14%10000m1014hPa71%
17-Jun-2024 21:00Broken Clouds18°C9 mph, S71%10000m1015hPa76%
18-Jun-2024 00:00Broken Clouds16°C4 mph, S71%10000m1016hPa90%